createdAt,value
2023-01-29T00:02:16.033Z,92.47
2023-01-29T00:05:16.670Z,92.63
2023-01-29T00:08:07.203Z,92.58
2023-01-29T00:10:52.629Z,92.63
2023-01-29T00:13:37.947Z,92.62
2023-01-29T00:16:23.185Z,92.83
2023-01-29T00:19:08.761Z,92.74
2023-01-29T00:21:54.154Z,92.69
2023-01-29T00:24:39.482Z,92.75
2023-01-29T00:27:24.860Z,92.61
2023-01-29T00:30:13.719Z,92.60
2023-01-29T00:32:59.142Z,92.46
2023-01-29T00:35:46.290Z,92.55
2023-01-29T00:38:32.231Z,92.41
2023-01-29T00:41:36.261Z,92.38
2023-01-29T00:44:40.270Z,92.29
2023-01-29T00:47:33.675Z,92.52
2023-01-29T00:50:19.668Z,92.53
2023-01-29T00:53:05.686Z,92.68
2023-01-29T00:55:51.378Z,92.29
2023-01-29T00:58:36.855Z,92.30
2023-01-29T01:01:42.807Z,92.32
2023-01-29T01:04:29.338Z,92.22
2023-01-29T01:07:14.674Z,92.52
2023-01-29T01:10:19.048Z,92.12
2023-01-29T01:13:06.914Z,92.39
2023-01-29T01:15:53.411Z,92.20
2023-01-29T01:18:38.888Z,92.19
2023-01-29T01:21:24.248Z,92.21
2023-01-29T01:24:09.444Z,92.04
2023-01-29T01:26:55.333Z,92.12
2023-01-29T01:29:41.079Z,92.20
2023-01-29T01:32:26.666Z,92.35
2023-01-29T01:35:14.842Z,92.58
2023-01-29T01:38:00.587Z,92.30
2023-01-29T01:40:46.517Z,92.15
2023-01-29T01:44:03.280Z,92.17
2023-01-29T01:46:49.012Z,92.33
2023-01-29T01:49:34.468Z,92.55
2023-01-29T01:52:21.107Z,92.28
2023-01-29T01:55:07.635Z,92.54
2023-01-29T01:58:00.842Z,92.39
2023-01-29T02:00:46.632Z,92.18
2023-01-29T02:03:56.865Z,92.45
2023-01-29T02:07:02.413Z,92.36
2023-01-29T02:09:56.878Z,92.36
2023-01-29T02:12:45.494Z,92.14
2023-01-29T02:15:31.001Z,92.47
2023-01-29T02:18:19.228Z,92.51
2023-01-29T02:21:25.359Z,92.38
2023-01-29T02:24:46.024Z,92.56
2023-01-29T02:28:05.935Z,92.19
2023-01-29T02:31:16.819Z,92.36
2023-01-29T02:34:21.079Z,92.42
2023-01-29T02:37:13.518Z,92.22
2023-01-29T02:40:16.154Z,92.23
2023-01-29T02:43:27.981Z,92.04
2023-01-29T02:46:34.938Z,91.91
2023-01-29T02:49:36.793Z,92.49
2023-01-29T02:52:36.744Z,92.03
2023-01-29T02:55:44.209Z,92.06
2023-01-29T02:58:37.812Z,91.71
2023-01-29T03:01:32.104Z,92.39
2023-01-29T03:04:26.249Z,92.00
2023-01-29T03:07:38.363Z,92.02
2023-01-29T03:10:45.864Z,92.16
2023-01-29T03:13:49.733Z,91.98
2023-01-29T03:16:50.734Z,92.26
2023-01-29T03:19:41.819Z,92.10
2023-01-29T03:22:39.872Z,91.78
2023-01-29T03:25:46.944Z,91.74
2023-01-29T03:28:53.768Z,91.86
2023-01-29T03:31:58.317Z,91.64
2023-01-29T03:34:51.671Z,91.75
2023-01-29T03:37:43.139Z,91.53
2023-01-29T03:40:58.467Z,91.90
2023-01-29T03:43:56.648Z,91.50
2023-01-29T03:47:12.689Z,91.70
2023-01-29T03:50:10.391Z,91.53
2023-01-29T03:53:05.790Z,91.23
2023-01-29T03:56:37.400Z,91.32
2023-01-29T03:59:27.780Z,91.21
2023-01-29T04:02:42.650Z,91.33
2023-01-29T04:05:38.005Z,91.07
2023-01-29T04:08:31.206Z,90.84
2023-01-29T04:11:21.527Z,90.87
2023-01-29T04:14:07.729Z,91.07
2023-01-29T04:16:57.368Z,91.31
2023-01-29T04:20:09.808Z,91.22
2023-01-29T04:22:58.449Z,91.00
2023-01-29T04:25:53.397Z,91.26
2023-01-29T04:28:52.188Z,91.04
2023-01-29T04:31:58.063Z,91.09
2023-01-29T04:35:10.829Z,91.35
2023-01-29T04:38:08.333Z,91.04
2023-01-29T04:41:16.888Z,91.13
2023-01-29T04:44:16.819Z,90.86
2023-01-29T04:47:05.361Z,90.83
2023-01-29T04:49:50.685Z,90.78
2023-01-29T04:52:56.591Z,90.96
2023-01-29T04:55:58.688Z,90.96
2023-01-29T04:58:54.454Z,91.04
2023-01-29T05:01:40.038Z,91.06
2023-01-29T05:04:27.010Z,91.40
2023-01-29T05:07:17.365Z,91.13
2023-01-29T05:10:08.286Z,90.97
2023-01-29T05:13:06.959Z,90.81
2023-01-29T05:16:08.323Z,90.68
2023-01-29T05:18:54.232Z,90.96
2023-01-29T05:21:41.856Z,90.40
2023-01-29T05:24:27.471Z,90.12
2023-01-29T05:27:44.214Z,90.33
2023-01-29T05:30:30.039Z,89.91
2023-01-29T05:33:20.636Z,90.21
2023-01-29T05:36:09.175Z,89.91
2023-01-29T05:38:54.420Z,89.91
2023-01-29T05:41:43.475Z,90.14
2023-01-29T05:44:29.073Z,90.22
2023-01-29T05:47:14.561Z,89.95
2023-01-29T05:49:59.706Z,90.06
2023-01-29T05:52:45.233Z,90.05
2023-01-29T05:55:30.641Z,89.83
2023-01-29T05:58:16.182Z,89.75
2023-01-29T06:01:19.889Z,89.62
2023-01-29T06:04:05.414Z,89.85
2023-01-29T06:06:52.644Z,89.89
2023-01-29T06:09:42.121Z,89.74
2023-01-29T06:12:28.104Z,89.68
2023-01-29T06:15:15.583Z,89.78
2023-01-29T06:18:01.051Z,89.78
2023-01-29T06:20:46.395Z,89.96
2023-01-29T06:23:31.762Z,89.49
2023-01-29T06:26:17.401Z,89.97
2023-01-29T06:29:02.661Z,89.63
2023-01-29T06:31:48.135Z,89.35
2023-01-29T06:34:33.890Z,89.51
2023-01-29T06:37:22.536Z,89.47
2023-01-29T06:40:08.668Z,89.92
2023-01-29T06:42:53.865Z,89.24
2023-01-29T06:45:39.249Z,89.79
2023-01-29T06:48:27.777Z,89.29
2023-01-29T06:51:14.691Z,89.94
2023-01-29T06:54:00.468Z,89.60
2023-01-29T06:56:45.788Z,89.86
2023-01-29T06:59:31.310Z,89.42
2023-01-29T07:02:16.796Z,89.35
2023-01-29T07:05:02.067Z,89.38
2023-01-29T07:07:47.499Z,89.15
2023-01-29T07:10:33.042Z,89.84
2023-01-29T07:13:18.285Z,89.73
2023-01-29T07:16:05.165Z,89.48
2023-01-29T07:18:51.232Z,89.77
2023-01-29T07:21:37.494Z,89.71
2023-01-29T07:24:26.268Z,89.78
2023-01-29T07:27:11.606Z,89.59
2023-01-29T07:29:56.840Z,88.94
2023-01-29T07:32:42.263Z,89.84
2023-01-29T07:35:27.597Z,89.61
2023-01-29T07:38:13.122Z,89.39
2023-01-29T07:40:58.537Z,89.41
2023-01-29T07:43:43.836Z,89.57
2023-01-29T07:46:29.317Z,89.63
2023-01-29T07:49:16.851Z,89.71
2023-01-29T07:52:02.526Z,89.22
2023-01-29T07:54:47.944Z,89.39
2023-01-29T07:57:33.236Z,89.43
2023-01-29T08:00:19.217Z,89.51
2023-01-29T08:03:05.430Z,89.68
2023-01-29T08:05:51.153Z,89.47
2023-01-29T08:08:36.555Z,89.21
2023-01-29T08:11:21.801Z,89.37
2023-01-29T08:14:09.613Z,88.83
2023-01-29T08:16:54.941Z,89.65
2023-01-29T08:19:40.316Z,89.18
2023-01-29T08:22:25.741Z,89.40
2023-01-29T08:25:11.827Z,89.02
2023-01-29T08:27:58.839Z,89.43
2023-01-29T08:30:44.722Z,89.45
2023-01-29T08:33:38.954Z,89.27
2023-01-29T08:36:24.593Z,89.50
2023-01-29T08:39:10.339Z,89.31
2023-01-29T08:41:55.564Z,89.35
2023-01-29T08:44:40.890Z,89.22
2023-01-29T08:47:27.468Z,89.35
2023-01-29T08:50:14.280Z,89.32
2023-01-29T08:53:01.525Z,89.32
2023-01-29T08:55:47.167Z,89.69
2023-01-29T08:58:33.036Z,89.57
2023-01-29T09:01:18.416Z,89.25
2023-01-29T09:04:03.793Z,89.26
2023-01-29T09:06:49.224Z,89.24
2023-01-29T09:09:34.588Z,88.64
2023-01-29T09:12:19.976Z,88.98
2023-01-29T09:15:05.683Z,88.78
2023-01-29T09:17:51.480Z,89.08
2023-01-29T09:20:38.234Z,88.56
2023-01-29T09:23:24.385Z,88.52
2023-01-29T09:26:09.880Z,88.32
2023-01-29T09:28:57.689Z,88.62
2023-01-29T09:31:43.218Z,88.59
2023-01-29T09:34:28.471Z,88.54
2023-01-29T09:37:13.872Z,88.54
2023-01-29T09:39:59.297Z,88.66
2023-01-29T09:42:53.706Z,89.05
2023-01-29T09:45:50.172Z,88.61
2023-01-29T09:48:36.904Z,88.08
2023-01-29T09:51:41.819Z,87.64
2023-01-29T09:54:48.906Z,86.95
2023-01-29T09:57:44.404Z,86.78
2023-01-29T10:00:37.520Z,86.69
2023-01-29T10:03:53.934Z,87.22
2023-01-29T10:07:10.407Z,86.97
2023-01-29T10:10:15.620Z,86.70
2023-01-29T10:13:05.723Z,86.69
2023-01-29T10:16:23.269Z,86.42
2023-01-29T10:19:25.551Z,86.38
2023-01-29T10:22:37.967Z,86.10
2023-01-29T10:25:23.888Z,85.66
2023-01-29T10:28:35.318Z,85.60
2023-01-29T10:31:32.768Z,86.11
2023-01-29T10:34:26.102Z,85.47
2023-01-29T10:37:19.464Z,85.67
2023-01-29T10:40:22.016Z,86.06
2023-01-29T10:43:16.547Z,85.51
2023-01-29T10:46:08.198Z,86.01
2023-01-29T10:49:22.926Z,86.28
2023-01-29T10:52:43.036Z,86.20
2023-01-29T10:55:40.730Z,85.71
2023-01-29T10:58:34.227Z,84.50
2023-01-29T11:01:19.729Z,84.86
2023-01-29T11:04:11.835Z,84.92
2023-01-29T11:06:59.320Z,86.04
2023-01-29T11:09:58.393Z,85.84
2023-01-29T11:12:45.855Z,85.04
2023-01-29T11:15:36.006Z,84.94
2023-01-29T11:18:21.640Z,84.84
2023-01-29T11:21:08.122Z,84.44
2023-01-29T11:24:17.080Z,85.22
2023-01-29T11:27:13.256Z,84.66
2023-01-29T11:29:59.179Z,84.96
2023-01-29T11:32:48.035Z,85.38
2023-01-29T11:35:33.466Z,86.10
2023-01-29T11:38:24.810Z,85.34
2023-01-29T11:41:22.472Z,84.97
2023-01-29T11:44:19.114Z,85.64
2023-01-29T11:47:27.822Z,84.50
2023-01-29T11:50:22.229Z,84.49
2023-01-29T11:53:23.497Z,84.67
2023-01-29T11:56:30.256Z,85.51
2023-01-29T11:59:37.350Z,84.67
2023-01-29T12:02:43.614Z,85.06
2023-01-29T12:05:29.334Z,84.60
2023-01-29T12:08:18.033Z,84.39
2023-01-29T12:11:23.804Z,85.05
2023-01-29T12:14:33.469Z,85.20
2023-01-29T12:17:26.737Z,84.98
2023-01-29T12:20:22.234Z,84.91
2023-01-29T12:23:41.740Z,84.39
2023-01-29T12:26:36.196Z,84.76
2023-01-29T12:29:32.477Z,84.83
2023-01-29T12:32:57.310Z,84.67
2023-01-29T12:35:47.527Z,84.76
2023-01-29T12:38:33.169Z,84.12
2023-01-29T12:41:31.144Z,84.68
2023-01-29T12:44:43.650Z,84.04
2023-01-29T12:47:41.008Z,83.83
2023-01-29T12:50:29.764Z,84.33
2023-01-29T12:53:30.744Z,84.08
2023-01-29T12:56:47.326Z,84.12
2023-01-29T12:59:45.585Z,84.60
2023-01-29T13:02:33.917Z,83.93
2023-01-29T13:05:27.239Z,84.23
2023-01-29T13:08:36.823Z,84.19
2023-01-29T13:11:25.196Z,84.68
2023-01-29T13:14:26.166Z,84.44
2023-01-29T13:17:23.403Z,84.44
2023-01-29T13:20:24.043Z,84.59
2023-01-29T13:23:21.500Z,85.04
2023-01-29T13:26:09.209Z,84.94
2023-01-29T13:28:55.081Z,84.52
2023-01-29T13:31:41.879Z,84.68
2023-01-29T13:34:31.792Z,85.40
2023-01-29T13:37:28.243Z,85.39
2023-01-29T13:40:48.503Z,85.38
2023-01-29T13:43:41.095Z,85.36
2023-01-29T13:46:28.407Z,85.61
2023-01-29T13:49:27.816Z,84.92
2023-01-29T13:52:32.186Z,85.38
2023-01-29T13:55:18.118Z,86.17
2023-01-29T13:58:38.029Z,85.26
2023-01-29T14:02:05.565Z,85.39
2023-01-29T14:04:51.303Z,85.16
2023-01-29T14:07:45.850Z,85.49
2023-01-29T14:10:33.153Z,84.82
2023-01-29T14:13:18.580Z,84.75
2023-01-29T14:16:03.924Z,84.69
2023-01-29T14:19:03.118Z,84.89
2023-01-29T14:21:50.670Z,84.00
2023-01-29T14:24:36.482Z,84.29
2023-01-29T14:27:27.371Z,84.12
2023-01-29T14:30:18.337Z,84.47
2023-01-29T14:33:05.635Z,84.02
2023-01-29T14:35:52.246Z,84.27
2023-01-29T14:38:40.180Z,83.88
2023-01-29T14:41:30.837Z,84.27
2023-01-29T14:44:44.266Z,84.63
2023-01-29T14:47:32.706Z,84.81
2023-01-29T14:50:33.532Z,84.92
2023-01-29T14:53:35.151Z,85.22
2023-01-29T14:56:40.899Z,84.69
2023-01-29T14:59:32.159Z,85.01
2023-01-29T15:02:27.068Z,84.63
2023-01-29T15:05:19.689Z,84.96
2023-01-29T15:08:14.449Z,84.84
2023-01-29T15:11:25.968Z,84.82
2023-01-29T15:14:26.136Z,84.82
2023-01-29T15:17:30.399Z,84.60
2023-01-29T15:20:45.279Z,84.61
2023-01-29T15:23:34.744Z,85.22
2023-01-29T15:26:26.924Z,84.66
2023-01-29T15:29:23.617Z,84.94
2023-01-29T15:32:20.354Z,84.73
2023-01-29T15:35:16.224Z,84.72
2023-01-29T15:38:06.463Z,85.24
2023-01-29T15:41:14.987Z,85.22
2023-01-29T15:44:00.970Z,85.29
2023-01-29T15:46:54.200Z,85.22
2023-01-29T15:49:40.340Z,85.18
2023-01-29T15:52:36.192Z,84.94
2023-01-29T15:55:23.788Z,84.45
2023-01-29T15:58:17.446Z,85.03
2023-01-29T16:01:03.945Z,85.47
2023-01-29T16:03:50.148Z,84.99
2023-01-29T16:06:40.093Z,85.61
2023-01-29T16:09:28.066Z,85.69
2023-01-29T16:12:14.092Z,85.39
2023-01-29T16:15:01.020Z,85.37
2023-01-29T16:17:46.503Z,85.37
2023-01-29T16:20:45.204Z,85.66
2023-01-29T16:23:41.883Z,85.49
2023-01-29T16:26:31.644Z,85.47
2023-01-29T16:29:23.114Z,85.45
2023-01-29T16:32:09.376Z,85.82
2023-01-29T16:35:00.198Z,85.58
2023-01-29T16:37:51.262Z,85.58
2023-01-29T16:40:38.882Z,85.56
2023-01-29T16:43:28.401Z,85.55
2023-01-29T16:46:37.741Z,85.26
2023-01-29T16:49:25.887Z,85.56
2023-01-29T16:52:19.959Z,85.51
2023-01-29T16:55:11.788Z,85.98
2023-01-29T16:57:57.109Z,85.97
2023-01-29T17:00:48.719Z,86.11
2023-01-29T17:03:35.714Z,86.85
2023-01-29T17:06:24.649Z,86.68
2023-01-29T17:09:21.674Z,86.68
2023-01-29T17:12:09.957Z,86.72
2023-01-29T17:15:00.995Z,86.61
2023-01-29T17:17:49.061Z,86.92
2023-01-29T17:20:34.528Z,87.05
2023-01-29T17:23:21.012Z,87.02
2023-01-29T17:26:14.776Z,87.13
2023-01-29T17:29:00.019Z,86.76
2023-01-29T17:31:45.331Z,87.36
2023-01-29T17:34:30.804Z,87.23
2023-01-29T17:37:16.962Z,87.01
2023-01-29T17:40:05.178Z,86.99
2023-01-29T17:42:51.159Z,87.00
2023-01-29T17:45:36.428Z,87.10
2023-01-29T17:48:23.047Z,86.96
2023-01-29T17:51:12.616Z,86.46
2023-01-29T17:53:58.774Z,86.85
2023-01-29T17:56:44.091Z,86.83
2023-01-29T17:59:33.357Z,87.06
2023-01-29T18:02:29.539Z,87.20
2023-01-29T18:05:17.217Z,87.77
2023-01-29T18:08:03.081Z,87.75
2023-01-29T18:10:48.477Z,87.64
2023-01-29T18:13:36.227Z,87.67
2023-01-29T18:16:22.760Z,87.60
2023-01-29T18:19:16.962Z,87.40
2023-01-29T18:22:02.127Z,86.86
2023-01-29T18:24:47.615Z,87.79
2023-01-29T18:27:33.042Z,88.02
2023-01-29T18:30:18.646Z,88.09
2023-01-29T18:33:04.090Z,87.53
2023-01-29T18:35:49.699Z,87.64
2023-01-29T18:38:35.398Z,87.12
2023-01-29T18:41:20.603Z,87.16
2023-01-29T18:44:05.973Z,87.23
2023-01-29T18:46:51.893Z,87.79
2023-01-29T18:49:39.161Z,87.59
2023-01-29T18:52:26.316Z,87.65
2023-01-29T18:55:12.201Z,87.79
2023-01-29T18:58:26.190Z,87.43
2023-01-29T19:01:09.073Z,87.79
2023-01-29T19:03:56.145Z,87.49
2023-01-29T19:06:41.816Z,87.65
2023-01-29T19:09:27.304Z,88.58
2023-01-29T19:12:13.352Z,87.75
2023-01-29T19:14:59.879Z,87.35
2023-01-29T19:17:45.146Z,87.42
2023-01-29T19:20:30.537Z,87.38
2023-01-29T19:23:15.772Z,87.62
2023-01-29T19:26:01.040Z,87.54
2023-01-29T19:28:46.549Z,88.10
2023-01-29T19:31:32.031Z,88.21
2023-01-29T19:34:17.251Z,87.70
2023-01-29T19:37:02.717Z,87.81
2023-01-29T19:39:48.082Z,87.67
2023-01-29T19:42:34.944Z,87.79
2023-01-29T19:45:49.707Z,87.18
2023-01-29T19:48:30.948Z,88.01
2023-01-29T19:51:16.629Z,88.16
2023-01-29T19:54:02.580Z,87.53
2023-01-29T19:56:47.850Z,87.63
2023-01-29T19:59:33.204Z,87.58
2023-01-29T20:02:18.695Z,87.39
2023-01-29T20:05:05.599Z,87.71
2023-01-29T20:07:51.059Z,88.52
2023-01-29T20:10:36.805Z,88.30
2023-01-29T20:13:22.347Z,88.27
2023-01-29T20:16:08.251Z,89.08
2023-01-29T20:18:53.461Z,88.75
2023-01-29T20:21:39.200Z,89.28
2023-01-29T20:24:26.472Z,88.54
2023-01-29T20:27:12.542Z,89.26
2023-01-29T20:30:00.786Z,88.97
2023-01-29T20:32:46.030Z,89.71
2023-01-29T20:35:32.569Z,89.00
2023-01-29T20:38:18.196Z,88.33
2023-01-29T20:41:12.791Z,87.90
2023-01-29T20:44:01.691Z,88.51
2023-01-29T20:46:47.330Z,89.00
2023-01-29T20:49:32.565Z,88.54
2023-01-29T20:52:18.171Z,88.41
2023-01-29T20:55:06.438Z,88.39
2023-01-29T20:58:05.761Z,88.50
2023-01-29T21:00:52.349Z,89.37
2023-01-29T21:03:39.393Z,89.05
2023-01-29T21:06:25.522Z,88.96
2023-01-29T21:09:10.880Z,88.99
2023-01-29T21:11:56.340Z,88.94
2023-01-29T21:14:41.679Z,88.87
2023-01-29T21:17:28.157Z,89.31
2023-01-29T21:20:14.102Z,89.63
2023-01-29T21:23:01.751Z,89.40
2023-01-29T21:25:48.424Z,89.38
2023-01-29T21:28:33.984Z,89.11
2023-01-29T21:31:19.173Z,88.70
2023-01-29T21:34:05.232Z,88.59
2023-01-29T21:36:50.950Z,88.21
2023-01-29T21:39:36.544Z,88.31
2023-01-29T21:42:40.654Z,88.58
2023-01-29T21:45:29.316Z,88.17
2023-01-29T21:48:14.532Z,88.04
2023-01-29T21:51:00.389Z,87.67
2023-01-29T21:53:45.770Z,87.60
2023-01-29T21:56:31.322Z,87.54
2023-01-29T21:59:16.747Z,87.08
2023-01-29T22:02:02.310Z,86.66
2023-01-29T22:04:52.261Z,86.71
2023-01-29T22:07:38.551Z,86.72
2023-01-29T22:10:23.990Z,86.71
2023-01-29T22:13:09.668Z,86.49
2023-01-29T22:15:55.042Z,85.60
2023-01-29T22:18:40.396Z,86.21
2023-01-29T22:21:25.811Z,86.22
2023-01-29T22:24:11.047Z,86.54
2023-01-29T22:26:56.453Z,86.10
2023-01-29T22:29:42.203Z,85.83
2023-01-29T22:32:27.802Z,86.27
2023-01-29T22:35:17.439Z,86.19
2023-01-29T22:38:03.132Z,85.98
2023-01-29T22:40:55.738Z,86.00
2023-01-29T22:43:41.334Z,85.35
2023-01-29T22:46:26.833Z,85.83
2023-01-29T22:49:12.139Z,86.19
2023-01-29T22:52:12.822Z,86.19
2023-01-29T22:54:58.244Z,86.26
2023-01-29T22:57:43.884Z,87.16
2023-01-29T23:00:29.304Z,86.43
2023-01-29T23:03:14.712Z,86.89
2023-01-29T23:06:00.047Z,87.91
2023-01-29T23:08:47.277Z,88.45
2023-01-29T23:11:32.679Z,87.33
2023-01-29T23:14:18.262Z,87.48
2023-01-29T23:17:03.548Z,87.90
2023-01-29T23:19:48.926Z,87.08
2023-01-29T23:22:34.230Z,86.57
2023-01-29T23:25:19.672Z,86.31
2023-01-29T23:28:05.220Z,85.14
2023-01-29T23:30:52.196Z,86.09
2023-01-29T23:33:37.879Z,86.41
2023-01-29T23:36:23.936Z,85.78
2023-01-29T23:39:09.706Z,87.04
2023-01-29T23:41:55.439Z,86.12
2023-01-29T23:44:40.884Z,84.58
2023-01-29T23:47:26.603Z,84.07
2023-01-29T23:50:12.290Z,83.35
2023-01-29T23:52:57.868Z,83.46
2023-01-29T23:55:46.061Z,84.11
2023-01-29T23:58:33.753Z,83.74
